createdAt,value
2022-08-22T00:02:36.992Z,18.86
2022-08-22T00:05:11.898Z,18.89
2022-08-22T00:08:00.892Z,18.90
2022-08-22T00:10:56.797Z,18.80
2022-08-22T00:14:02.590Z,18.75
2022-08-22T00:20:28.092Z,18.70
2022-08-22T00:22:55.324Z,18.72
2022-08-22T00:25:43.228Z,18.74
2022-08-22T00:28:38.920Z,18.74
2022-08-22T00:31:33.539Z,18.69
2022-08-22T00:34:06.318Z,18.62
2022-08-22T00:36:43.369Z,18.56
2022-08-22T00:39:35.865Z,18.50
2022-08-22T00:42:31.281Z,18.42
2022-08-22T00:44:58.724Z,18.35
2022-08-22T00:54:54.654Z,18.90
2022-08-22T00:57:36.661Z,18.90
2022-08-22T01:00:12.037Z,18.36
2022-08-22T01:02:52.283Z,18.39
2022-08-22T01:05:44.786Z,18.36
2022-08-22T01:08:26.400Z,18.36
2022-08-22T01:11:10.507Z,18.37
2022-08-22T01:13:50.267Z,18.40
2022-08-22T01:16:16.994Z,18.41
2022-08-22T01:19:18.950Z,18.39
2022-08-22T01:21:55.171Z,18.45
2022-08-22T01:24:37.253Z,18.51
2022-08-22T01:27:43.426Z,18.51
2022-08-22T01:30:27.595Z,18.53
2022-08-22T01:33:32.143Z,18.58
2022-08-22T01:36:19.931Z,18.59
2022-08-22T01:39:04.999Z,18.62
2022-08-22T01:41:37.915Z,18.64
2022-08-22T01:44:10.502Z,18.62
2022-08-22T01:46:46.725Z,18.66
2022-08-22T01:49:23.085Z,18.64
2022-08-22T01:52:05.936Z,18.64
2022-08-22T01:54:54.995Z,18.56
2022-08-22T01:57:23.905Z,18.61
2022-08-22T01:59:55.468Z,18.49
2022-08-22T02:02:40.745Z,18.48
2022-08-22T02:05:24.664Z,18.45
2022-08-22T02:08:03.658Z,18.36
2022-08-22T02:10:42.665Z,18.42
2022-08-22T02:13:12.962Z,18.40
2022-08-22T02:15:43.981Z,18.35
2022-08-22T02:18:31.123Z,18.36
2022-08-22T02:21:08.916Z,18.41
2022-08-22T02:23:44.478Z,18.43
2022-08-22T02:26:45.587Z,18.42
2022-08-22T02:29:15.496Z,18.41
2022-08-22T02:31:58.516Z,18.41
2022-08-22T02:34:32.769Z,18.33
2022-08-22T02:37:05.981Z,18.34
2022-08-22T02:39:39.303Z,18.29
2022-08-22T02:42:33.853Z,18.28
2022-08-22T02:45:12.817Z,18.26
2022-08-22T02:47:51.217Z,18.24
2022-08-22T02:50:31.287Z,18.22
2022-08-22T02:53:03.819Z,18.26
2022-08-22T02:55:38.907Z,18.29
2022-08-22T02:58:24.601Z,18.28
2022-08-22T03:01:33.443Z,18.29
2022-08-22T03:04:41.606Z,18.28
2022-08-22T03:07:20.580Z,18.27
2022-08-22T03:09:59.512Z,18.25
2022-08-22T03:13:10.540Z,18.24
2022-08-22T03:15:49.640Z,18.33
2022-08-22T03:18:28.511Z,18.36
2022-08-22T03:21:36.461Z,18.37
2022-08-22T03:24:24.312Z,18.37
2022-08-22T03:26:56.745Z,18.36
2022-08-22T03:29:32.944Z,18.35
2022-08-22T03:32:14.215Z,18.31
2022-08-22T03:34:56.198Z,18.26
2022-08-22T03:37:42.881Z,18.29
2022-08-22T03:40:46.161Z,18.29
2022-08-22T03:43:18.731Z,18.27
2022-08-22T03:46:14.889Z,18.27
2022-08-22T03:49:06.459Z,18.24
2022-08-22T03:51:52.218Z,18.29
2022-08-22T03:54:45.592Z,18.34
2022-08-22T03:57:23.355Z,18.35
2022-08-22T04:00:21.424Z,18.37
2022-08-22T04:03:06.207Z,18.36
2022-08-22T04:05:35.768Z,18.34
2022-08-22T04:08:26.474Z,18.36
2022-08-22T04:11:15.664Z,18.37
2022-08-22T04:14:36.705Z,18.38
2022-08-22T04:17:34.411Z,18.43
2022-08-22T04:20:10.244Z,18.46
2022-08-22T04:23:26.830Z,18.49
2022-08-22T04:26:18.915Z,18.53
2022-08-22T04:28:52.482Z,18.58
2022-08-22T04:31:31.483Z,18.62
2022-08-22T04:34:19.832Z,18.63
2022-08-22T04:36:56.763Z,18.59
2022-08-22T04:39:50.023Z,18.70
2022-08-22T04:42:32.628Z,18.73
2022-08-22T04:45:09.035Z,18.74
2022-08-22T04:48:01.185Z,18.84
2022-08-22T04:50:43.029Z,18.82
2022-08-22T04:53:31.623Z,18.85
2022-08-22T04:56:15.228Z,18.91
2022-08-22T04:58:47.762Z,18.97
2022-08-22T05:01:27.748Z,18.98
2022-08-22T05:04:02.643Z,19.02
2022-08-22T05:06:32.561Z,19.04
2022-08-22T05:09:04.441Z,19.05
2022-08-22T05:11:34.044Z,19.02
2022-08-22T05:14:07.852Z,19.07
2022-08-22T05:16:40.669Z,19.06
2022-08-22T05:19:31.197Z,19.09
2022-08-22T05:21:59.821Z,19.12
2022-08-22T05:24:48.493Z,19.19
2022-08-22T05:27:23.242Z,19.23
2022-08-22T05:29:55.197Z,19.28
2022-08-22T05:32:32.860Z,19.35
2022-08-22T05:35:03.169Z,19.37
2022-08-22T05:37:53.366Z,19.39
2022-08-22T05:40:24.707Z,19.38
2022-08-22T05:42:53.289Z,19.34
2022-08-22T05:45:21.491Z,19.45
2022-08-22T05:48:03.212Z,19.41
2022-08-22T05:50:36.196Z,19.45
2022-08-22T05:53:09.236Z,19.44
2022-08-22T05:55:54.396Z,19.49
2022-08-22T05:58:53.470Z,19.54
2022-08-22T06:01:23.593Z,19.52
2022-08-22T06:04:15.744Z,19.52
2022-08-22T06:07:07.163Z,19.49
2022-08-22T06:09:43.214Z,19.47
2022-08-22T06:12:26.425Z,19.61
2022-08-22T06:15:20.739Z,19.65
2022-08-22T06:17:51.394Z,19.61
2022-08-22T06:20:25.861Z,19.67
2022-08-22T06:22:59.497Z,19.82
2022-08-22T06:25:32.443Z,19.97
2022-08-22T06:28:06.192Z,19.90
2022-08-22T06:30:35.403Z,19.84
2022-08-22T06:33:07.832Z,19.96
2022-08-22T06:36:08.215Z,20.11
2022-08-22T06:39:00.546Z,20.23
2022-08-22T06:41:30.974Z,20.45
2022-08-22T06:44:00.477Z,20.50
2022-08-22T06:46:29.327Z,20.58
2022-08-22T06:49:00.410Z,20.76
2022-08-22T06:51:29.234Z,20.71
2022-08-22T06:54:03.693Z,20.70
2022-08-22T06:56:36.371Z,20.69
2022-08-22T06:59:12.726Z,20.77
2022-08-22T07:01:48.320Z,21.07
2022-08-22T07:04:15.993Z,21.08
2022-08-22T07:06:50.180Z,21.05
2022-08-22T07:09:23.623Z,21.03
2022-08-22T07:11:52.288Z,20.95
2022-08-22T07:14:29.392Z,20.26
2022-08-22T07:17:03.156Z,21.11
2022-08-22T07:19:33.567Z,21.15
2022-08-22T07:22:12.237Z,21.25
2022-08-22T07:24:48.653Z,21.36
2022-08-22T07:27:57.008Z,21.54
2022-08-22T07:30:34.513Z,21.71
2022-08-22T07:33:21.023Z,21.96
2022-08-22T07:36:23.219Z,22.12
2022-08-22T07:39:13.342Z,22.07
2022-08-22T07:41:45.949Z,22.14
2022-08-22T07:44:22.991Z,22.29
2022-08-22T07:47:18.090Z,22.45
2022-08-22T07:50:04.733Z,22.48
2022-08-22T07:52:40.645Z,22.63
2022-08-22T07:55:17.326Z,22.75
2022-08-22T07:57:49.953Z,22.73
2022-08-22T08:00:20.205Z,22.45
2022-08-22T08:02:52.267Z,22.17
2022-08-22T08:05:24.091Z,22.19
2022-08-22T08:07:54.541Z,22.12
2022-08-22T08:10:32.963Z,22.35
2022-08-22T08:13:03.880Z,22.44
2022-08-22T08:15:34.986Z,22.62
2022-08-22T08:18:11.523Z,22.94
2022-08-22T08:20:39.464Z,23.29
2022-08-22T08:23:10.802Z,23.49
2022-08-22T08:25:54.412Z,23.84
2022-08-22T08:28:34.323Z,24.02
2022-08-22T08:31:10.247Z,23.30
2022-08-22T08:33:41.113Z,23.19
2022-08-22T08:36:34.547Z,23.06
2022-08-22T08:39:19.569Z,23.01
2022-08-22T08:42:15.073Z,23.08
2022-08-22T08:45:06.738Z,23.17
2022-08-22T08:48:05.862Z,23.22
2022-08-22T08:50:50.277Z,23.29
2022-08-22T08:53:47.297Z,23.25
2022-08-22T08:56:32.288Z,23.24
2022-08-22T08:59:02.079Z,23.44
2022-08-22T09:01:49.937Z,23.84
2022-08-22T09:04:17.963Z,23.83
2022-08-22T09:07:18.880Z,23.76
2022-08-22T09:10:00.750Z,23.59
2022-08-22T09:13:12.581Z,23.47
2022-08-22T09:16:04.877Z,23.36
2022-08-22T09:18:59.283Z,23.50
2022-08-22T09:22:14.173Z,24.02
2022-08-22T09:25:06.514Z,25.23
2022-08-22T09:27:59.483Z,25.80
2022-08-22T09:31:16.787Z,26.97
2022-08-22T09:34:28.438Z,26.37
2022-08-22T09:37:04.486Z,26.34
2022-08-22T09:40:00.269Z,25.89
2022-08-22T09:42:44.754Z,25.61
2022-08-22T09:45:17.917Z,25.51
2022-08-22T09:48:15.424Z,25.32
2022-08-22T09:51:01.656Z,24.97
2022-08-22T09:53:44.560Z,24.83
2022-08-22T09:56:26.529Z,24.49
2022-08-22T09:59:09.870Z,24.49
2022-08-22T10:01:53.293Z,24.66
2022-08-22T10:04:34.659Z,24.69
2022-08-22T10:07:26.397Z,24.67
2022-08-22T10:10:12.156Z,24.77
2022-08-22T10:13:23.825Z,24.80
2022-08-22T10:16:09.587Z,25.01
2022-08-22T10:18:52.819Z,25.25
2022-08-22T10:21:21.719Z,25.21
2022-08-22T10:23:53.765Z,25.02
2022-08-22T10:26:22.958Z,25.20
2022-08-22T10:29:31.493Z,25.55
2022-08-22T10:32:18.360Z,25.82
2022-08-22T10:34:59.429Z,26.51
2022-08-22T10:37:36.805Z,26.86
2022-08-22T10:40:28.833Z,26.70
2022-08-22T10:43:13.558Z,27.29
2022-08-22T10:45:45.655Z,27.01
2022-08-22T10:48:19.102Z,26.91
2022-08-22T10:50:50.390Z,26.52
2022-08-22T10:53:34.780Z,26.22
2022-08-22T10:56:27.352Z,26.22
2022-08-22T10:59:16.335Z,26.90
2022-08-22T11:01:58.973Z,27.22
2022-08-22T11:05:02.306Z,27.59
2022-08-22T11:07:29.694Z,27.32
2022-08-22T11:10:09.238Z,27.74
2022-08-22T11:12:44.520Z,27.72
2022-08-22T11:15:27.266Z,27.27
2022-08-22T11:18:23.222Z,26.94
2022-08-22T11:21:01.057Z,26.76
2022-08-22T11:23:54.728Z,26.89
2022-08-22T11:26:47.266Z,26.79
2022-08-22T11:29:38.820Z,27.21
2022-08-22T11:32:24.644Z,27.03
2022-08-22T11:35:00.609Z,27.14
2022-08-22T11:37:58.920Z,27.08
2022-08-22T11:42:52.895Z,28.51
2022-08-22T11:45:24.223Z,28.51
2022-08-22T11:48:09.223Z,27.67
2022-08-22T11:50:43.505Z,28.05
2022-08-22T11:53:11.316Z,27.84
2022-08-22T11:55:53.934Z,27.80
2022-08-22T11:58:48.987Z,27.92
2022-08-22T12:01:21.677Z,28.59
2022-08-22T12:03:58.411Z,28.32
2022-08-22T12:06:59.488Z,28.66
2022-08-22T12:09:40.411Z,28.87
2022-08-22T12:12:13.473Z,28.62
2022-08-22T12:15:11.803Z,28.61
2022-08-22T12:18:01.982Z,28.49
2022-08-22T12:20:40.861Z,28.00
2022-08-22T12:23:50.383Z,27.83
2022-08-22T12:27:02.573Z,27.82
2022-08-22T12:29:55.691Z,27.82
2022-08-22T12:32:43.910Z,27.78
2022-08-22T12:35:30.085Z,27.97
2022-08-22T12:38:41.787Z,28.00
2022-08-22T12:41:27.790Z,28.06
2022-08-22T12:44:23.132Z,28.39
2022-08-22T12:47:14.534Z,29.34
2022-08-22T12:50:14.602Z,29.49
2022-08-22T12:53:18.286Z,30.50
2022-08-22T12:55:57.203Z,29.40
2022-08-22T12:58:36.468Z,28.55
2022-08-22T13:01:08.283Z,29.34
2022-08-22T13:03:43.500Z,29.42
2022-08-22T13:06:35.613Z,29.41
2022-08-22T13:09:11.721Z,28.22
2022-08-22T13:11:41.803Z,28.82
2022-08-22T13:14:15.614Z,29.86
2022-08-22T13:16:52.432Z,29.62
2022-08-22T13:19:24.035Z,30.73
2022-08-22T13:22:08.233Z,31.11
2022-08-22T13:24:52.314Z,30.30
2022-08-22T13:27:26.016Z,29.58
2022-08-22T13:30:00.457Z,29.33
2022-08-22T13:32:33.304Z,28.77
2022-08-22T13:35:01.787Z,29.05
2022-08-22T13:37:41.250Z,28.99
2022-08-22T13:40:13.457Z,30.01
2022-08-22T13:42:47.996Z,31.68
2022-08-22T13:45:24.092Z,31.77
2022-08-22T13:48:03.983Z,29.29
2022-08-22T13:50:54.081Z,28.89
2022-08-22T13:53:41.618Z,28.20
2022-08-22T13:56:25.727Z,27.85
2022-08-22T13:59:03.674Z,27.45
2022-08-22T14:01:53.738Z,26.77
2022-08-22T14:04:34.860Z,27.17
2022-08-22T14:07:06.113Z,27.16
2022-08-22T14:09:47.345Z,26.82
2022-08-22T14:12:21.947Z,26.63
2022-08-22T14:14:56.672Z,26.55
2022-08-22T14:17:34.413Z,26.34
2022-08-22T14:20:14.847Z,26.53
2022-08-22T14:23:06.545Z,26.70
2022-08-22T14:25:39.771Z,26.52
2022-08-22T14:28:11.190Z,26.49
2022-08-22T14:31:01.077Z,26.32
2022-08-22T14:33:39.950Z,26.47
2022-08-22T14:36:21.985Z,27.21
2022-08-22T14:39:01.939Z,27.93
2022-08-22T14:41:55.552Z,27.98
2022-08-22T14:44:39.395Z,28.60
2022-08-22T14:47:54.534Z,27.70
2022-08-22T14:50:12.009Z,26.67
2022-08-22T14:52:45.309Z,26.29
2022-08-22T14:55:20.530Z,26.30
2022-08-22T14:57:57.730Z,26.73
2022-08-22T15:00:39.862Z,26.63
2022-08-22T15:03:32.863Z,27.20
2022-08-22T15:06:03.319Z,27.13
2022-08-22T15:08:34.616Z,26.99
2022-08-22T15:11:11.153Z,26.52
2022-08-22T15:13:43.316Z,26.53
2022-08-22T15:16:17.796Z,26.23
2022-08-22T15:18:51.797Z,26.35
2022-08-22T15:21:24.477Z,25.86
2022-08-22T15:23:59.778Z,25.49
2022-08-22T15:26:32.780Z,25.46
2022-08-22T15:29:07.086Z,25.08
2022-08-22T15:31:35.392Z,24.92
2022-08-22T15:34:13.225Z,24.65
2022-08-22T15:37:25.041Z,24.56
2022-08-22T15:39:58.291Z,24.56
2022-08-22T15:42:30.579Z,24.29
2022-08-22T15:44:59.302Z,24.35
2022-08-22T15:47:34.867Z,24.33
2022-08-22T15:50:10.407Z,24.02
2022-08-22T15:53:04.823Z,24.12
2022-08-22T15:55:37.091Z,24.31
2022-08-22T15:58:12.993Z,24.32
2022-08-22T16:00:45.032Z,23.91
2022-08-22T16:03:25.413Z,23.66
2022-08-22T16:05:56.997Z,23.60
2022-08-22T16:08:32.792Z,23.62
2022-08-22T16:11:03.320Z,23.60
2022-08-22T16:13:30.151Z,23.45
2022-08-22T16:16:11.219Z,23.50
2022-08-22T16:18:39.434Z,23.36
2022-08-22T16:21:13.548Z,22.98
2022-08-22T16:23:58.668Z,22.71
2022-08-22T16:26:31.398Z,22.64
2022-08-22T16:29:13.640Z,22.55
2022-08-22T16:31:58.382Z,22.39
2022-08-22T16:34:28.068Z,22.05
2022-08-22T16:36:54.834Z,21.83
2022-08-22T16:39:21.620Z,21.64
2022-08-22T16:42:14.952Z,21.35
2022-08-22T16:44:44.002Z,20.97
2022-08-22T16:47:13.279Z,20.90
2022-08-22T16:49:56.330Z,20.82
2022-08-22T16:52:26.372Z,20.78
2022-08-22T16:55:06.325Z,20.97
2022-08-22T16:57:36.245Z,21.09
2022-08-22T17:00:32.170Z,20.91
2022-08-22T17:03:34.883Z,20.85
2022-08-22T17:06:32.492Z,20.82
2022-08-22T17:09:30.356Z,20.73
2022-08-22T17:12:37.232Z,20.27
2022-08-22T17:15:36.843Z,20.10
2022-08-22T17:18:22.201Z,20.06
2022-08-22T17:21:04.639Z,20.15
2022-08-22T17:23:50.220Z,20.14
2022-08-22T17:26:48.043Z,20.04
2022-08-22T17:29:28.973Z,19.88
2022-08-22T17:32:22.032Z,19.82
2022-08-22T17:34:59.457Z,19.70
2022-08-22T17:37:50.875Z,19.72
2022-08-22T17:40:25.905Z,19.88
2022-08-22T17:43:21.018Z,19.88
2022-08-22T17:45:54.330Z,19.93
2022-08-22T17:48:27.051Z,19.79
2022-08-22T17:51:00.269Z,19.75
2022-08-22T17:53:44.856Z,19.61
2022-08-22T17:56:20.182Z,19.72
2022-08-22T17:59:09.149Z,19.88
2022-08-22T18:01:51.218Z,20.02
2022-08-22T18:04:59.519Z,20.11
2022-08-22T18:07:49.358Z,20.16
2022-08-22T18:10:22.071Z,20.08
2022-08-22T18:13:03.489Z,20.17
2022-08-22T18:15:43.670Z,20.18
2022-08-22T18:18:33.503Z,20.27
2022-08-22T18:21:15.474Z,20.31
2022-08-22T18:23:52.084Z,20.33
2022-08-22T18:26:44.821Z,20.34
2022-08-22T18:29:16.797Z,20.34
2022-08-22T18:31:46.683Z,20.33
2022-08-22T18:34:20.856Z,20.27
2022-08-22T18:36:56.034Z,20.27
2022-08-22T18:39:31.777Z,20.29
2022-08-22T18:42:21.995Z,20.29
2022-08-22T18:44:48.819Z,20.29
2022-08-22T18:47:34.643Z,20.24
2022-08-22T18:50:32.921Z,20.16
2022-08-22T18:53:00.367Z,20.15
2022-08-22T18:55:27.678Z,20.02
2022-08-22T18:58:28.316Z,20.09
2022-08-22T19:01:21.618Z,19.92
2022-08-22T19:04:24.364Z,19.87
2022-08-22T19:07:32.571Z,19.87
2022-08-22T19:10:05.816Z,19.72
2022-08-22T19:13:01.872Z,19.74
2022-08-22T19:18:28.490Z,20.44
2022-08-22T19:21:33.024Z,20.44
2022-08-22T19:24:00.904Z,19.80
2022-08-22T19:26:34.630Z,19.78
2022-08-22T19:29:16.834Z,19.75
2022-08-22T19:31:49.601Z,19.75
2022-08-22T19:34:27.292Z,19.79
2022-08-22T19:37:32.161Z,19.74
2022-08-22T19:40:11.828Z,19.72
2022-08-22T19:42:44.487Z,19.70
2022-08-22T19:45:26.770Z,19.70
2022-08-22T19:47:58.740Z,19.70
2022-08-22T19:50:33.407Z,19.70
2022-08-22T19:53:33.738Z,19.69
2022-08-22T19:56:03.876Z,19.71
2022-08-22T19:58:50.952Z,19.71
2022-08-22T20:01:41.304Z,19.69
2022-08-22T20:04:56.065Z,19.66
2022-08-22T20:07:52.467Z,19.67
2022-08-22T20:10:50.337Z,19.66
2022-08-22T20:13:24.123Z,19.61
2022-08-22T20:16:11.164Z,19.67
2022-08-22T20:19:18.811Z,19.58
2022-08-22T20:21:58.780Z,19.59
2022-08-22T20:24:44.526Z,19.40
2022-08-22T20:27:26.700Z,19.34
2022-08-22T20:30:07.672Z,19.43
2022-08-22T20:32:51.158Z,19.37
2022-08-22T20:35:27.061Z,19.29
2022-08-22T20:38:09.203Z,19.32
2022-08-22T20:40:55.878Z,19.31
2022-08-22T20:43:49.586Z,19.24
2022-08-22T20:46:25.545Z,19.28
2022-08-22T20:48:55.751Z,19.21
2022-08-22T20:51:25.669Z,19.16
2022-08-22T20:53:58.829Z,19.21
2022-08-22T20:56:53.129Z,19.16
2022-08-22T20:59:29.660Z,19.22
2022-08-22T21:02:34.232Z,19.21
2022-08-22T21:05:00.949Z,19.20
2022-08-22T21:07:36.909Z,19.20
2022-08-22T21:10:23.132Z,19.16
2022-08-22T21:13:07.234Z,19.16
2022-08-22T21:15:43.839Z,19.19
2022-08-22T21:18:23.213Z,19.12
2022-08-22T21:20:50.854Z,19.12
2022-08-22T21:23:19.702Z,19.12
2022-08-22T21:26:02.619Z,19.09
2022-08-22T21:28:31.787Z,19.02
2022-08-22T21:31:07.001Z,19.02
2022-08-22T21:33:33.852Z,19.05
2022-08-22T21:36:01.038Z,19.02
2022-08-22T21:38:28.206Z,19.00
2022-08-22T21:41:01.968Z,19.03
2022-08-22T21:43:34.111Z,18.98
2022-08-22T21:46:01.059Z,19.02
2022-08-22T21:48:41.048Z,19.06
2022-08-22T21:51:22.659Z,19.08
2022-08-22T21:53:58.225Z,19.08
2022-08-22T21:56:37.008Z,19.06
2022-08-22T21:59:24.995Z,19.06
2022-08-22T22:01:53.200Z,19.02
2022-08-22T22:04:22.819Z,19.04
2022-08-22T22:06:49.666Z,19.10
2022-08-22T22:09:16.493Z,19.15
2022-08-22T22:11:43.416Z,19.18
2022-08-22T22:14:10.306Z,19.21
2022-08-22T22:16:38.463Z,19.18
2022-08-22T22:19:08.648Z,19.21
2022-08-22T22:21:36.957Z,19.18
2022-08-22T22:24:04.085Z,19.15
2022-08-22T22:26:31.667Z,19.16
2022-08-22T22:28:59.226Z,19.13
2022-08-22T22:31:26.169Z,19.14
2022-08-22T22:33:52.995Z,19.12
2022-08-22T22:36:23.504Z,19.13
2022-08-22T22:38:51.592Z,19.13
2022-08-22T22:41:21.251Z,19.16
2022-08-22T22:43:48.045Z,19.22
2022-08-22T22:46:14.901Z,19.22
2022-08-22T22:48:41.709Z,19.25
2022-08-22T22:51:10.404Z,19.25
2022-08-22T22:53:42.628Z,19.23
2022-08-22T22:56:13.742Z,19.23
2022-08-22T22:58:42.396Z,19.20
2022-08-22T23:01:19.299Z,19.20
2022-08-22T23:03:47.315Z,19.17
2022-08-22T23:06:19.587Z,19.15
2022-08-22T23:08:47.558Z,19.14
2022-08-22T23:11:19.355Z,19.15
2022-08-22T23:13:48.222Z,19.22
2022-08-22T23:16:21.674Z,19.22
2022-08-22T23:18:49.722Z,19.26
2022-08-22T23:21:18.399Z,19.22
2022-08-22T23:23:46.283Z,19.23
2022-08-22T23:26:14.347Z,19.26
2022-08-22T23:28:41.444Z,19.18
2022-08-22T23:31:33.285Z,19.20
2022-08-22T23:34:11.400Z,19.24
2022-08-22T23:36:40.562Z,19.22
2022-08-22T23:39:09.013Z,19.26
2022-08-22T23:41:36.773Z,19.25
2022-08-22T23:44:06.763Z,19.26
2022-08-22T23:46:35.759Z,19.27
2022-08-22T23:49:04.332Z,19.28
2022-08-22T23:51:31.220Z,19.29
2022-08-22T23:53:59.564Z,19.25
2022-08-22T23:56:29.447Z,19.25
2022-08-22T23:58:57.313Z,19.22
